Time;durP1;ratioP1;P1;durP2;ratioP2;P2;SDS_P1;SDS_P2;PMS_P1;PMS_P2;Temp;Humidity;BMP_temperature;BMP_pressure;BME280_temperature;BME280_humidity;BME280_pressure;Samples;Min_cycle;Max_cycle;Signal;HPM_P1;HPM_P2
2021/08/09 03:16:17;;;;;;;;;;;;;;;5.91;90.89;99698.53;5497477;22;20468;-89
2021/08/09 03:18:42;;;;;;;;;;;;;;;6.05;90.25;99699.97;5036294;28;20211;-88
2021/08/09 03:21:08;;;;;;;;;;;;;;;5.81;91.69;99703.16;5036597;28;19921;-86
2021/08/09 03:23:34;;;;;;;;;;;;;;;5.86;91.71;99705.66;5040186;28;20239;-88
2021/08/09 03:25:59;;;;;;;;;;;;;;;5.88;92.47;99692.47;5040655;28;19929;-87
2021/08/09 03:28:24;;;;;;;;;;;;;;;5.90;97.09;99696.78;5040808;28;20288;-87
2021/08/09 03:30:50;;;;;;;;;;;;;;;6.20;100.00;99699.56;5041278;28;20252;-88
2021/08/09 03:33:15;;;;;;;;;;;;;;;6.41;100.00;99702.53;5040261;28;19921;-90
2021/08/09 03:35:40;;;;;;;;;;;;;;;6.50;100.00;99703.16;5040593;28;19932;-88
2021/08/09 03:38:06;;;;;;;;;;;;;;;6.29;100.00;99706.38;5043058;28;19929;-90
2021/08/09 03:40:31;;;;;;;;;;;;;;;6.52;100.00;99703.09;5054260;28;19921;-91
2021/08/09 03:42:56;;;;;;;;;;;;;;;6.45;100.00;99704.19;5057615;28;19935;-91
2021/08/09 03:45:22;;;;;;;;;;;;;;;6.36;100.00;99706.16;5059844;28;19964;-92
2021/08/09 03:47:47;;;;;;;;;;;;;;;6.47;100.00;99705.84;5058650;28;19921;-92
2021/08/09 03:50:12;;;;;;;;;;;;;;;6.46;100.00;99711.16;5056868;28;19940;-91
2021/08/09 03:52:47;;;;;;;;;;;;;;;6.65;100.00;99711.53;5055219;28;19932;-92
2021/08/09 03:55:13;;;;;;;;;;;;;;;6.67;100.00;99713.22;5057388;28;19921;-91
2021/08/09 03:57:38;;;;;;;;;;;;;;;6.94;100.00;99712.47;5049564;28;19921;-91
2021/08/09 04:00:05;;;;;;;;;;;;;;;7.03;100.00;99713.06;5052867;28;19922;-92
2021/08/09 04:02:31;;;;;;;;;;;;;;;6.94;100.00;99717.72;5057677;28;19984;-91
2021/08/09 04:04:58;;;;;;;;;;;;;;;6.78;100.00;99719.94;5057175;28;19944;-91
2021/08/09 04:07:23;;;;;;;;;;;;;;;6.78;100.00;99717.31;5056846;28;19936;-91
2021/08/09 04:09:49;;;;;;;;;;;;;;;6.78;100.00;99722.56;5055642;28;19980;-91
2021/08/09 04:12:14;;;;;;;;;;;;;;;6.69;100.00;99724.56;5053966;28;19932;-90
2021/08/09 04:14:39;;;;;;;;;;;;;;;6.55;100.00;99731.97;5053460;28;19991;-91
2021/08/09 04:17:05;;;;;;;;;;;;;;;6.52;100.00;99735.53;5052122;28;19932;-92
2021/08/09 04:19:30;;;;;;;;;;;;;;;6.35;100.00;99735.13;5044771;28;19944;-91
2021/08/09 04:21:56;;;;;;;;;;;;;;;6.41;100.00;99728.84;5027532;28;20323;-91
2021/08/09 04:24:21;;;;;;;;;;;;;;;6.43;100.00;99732.31;5023005;28;20495;-92
2021/08/09 04:26:47;;;;;;;;;;;;;;;6.33;100.00;99724.69;5022409;28;19920;-89
2021/08/09 04:29:12;;;;;;;;;;;;;;;6.34;100.00;99730.78;5022812;28;19925;-91
2021/08/09 04:31:42;;;;;;;;;;;;;;;6.26;100.00;99727.50;5022058;28;19967;-90
2021/08/09 04:34:07;;;;;;;;;;;;;;;6.26;100.00;99724.88;5038677;28;20304;-89
2021/08/09 04:36:32;;;;;;;;;;;;;;;6.31;100.00;99728.25;5021854;28;19953;-89
2021/08/09 04:38:58;;;;;;;;;;;;;;;6.25;100.00;99729.25;5022571;28;20212;-87
2021/08/09 04:41:23;;;;;;;;;;;;;;;6.28;100.00;99729.16;5041252;28;20022;-89
2021/08/09 04:43:48;;;;;;;;;;;;;;;6.23;100.00;99724.94;5037800;28;19971;-90
2021/08/09 04:46:14;;;;;;;;;;;;;;;6.24;100.00;99724.91;5042638;28;19920;-89
2021/08/09 04:48:39;;;;;;;;;;;;;;;6.24;99.51;99727.53;5059334;28;19952;-90
2021/08/09 04:51:04;;;;;;;;;;;;;;;6.17;99.42;99725.97;5078811;28;19986;-89
2021/08/09 07:59:31;;;;;;;;;;;;;;;5.74;98.28;99775.19;5021458;28;20289;-90
2021/08/09 08:02:03;;;;;;;;;;;;;;;5.70;99.98;99777.94;5023000;28;19928;-90
2021/08/09 08:04:29;;;;;;;;;;;;;;;5.68;100.00;99779.72;5022676;28;20307;-91
2021/08/09 08:06:55;;;;;;;;;;;;;;;5.70;99.45;99785.81;5021287;28;19947;-89
2021/08/09 08:09:23;;;;;;;;;;;;;;;5.71;100.00;99772.66;5028767;28;20016;-89
2021/08/09 08:11:48;;;;;;;;;;;;;;;5.67;100.00;99784.13;5024016;28;19921;-90
2021/08/09 08:14:14;;;;;;;;;;;;;;;5.58;99.83;99784.31;5031449;28;19931;-89
2021/08/09 08:16:40;;;;;;;;;;;;;;;5.67;99.91;99781.50;5003375;28;20236;-89
2021/08/09 08:19:05;;;;;;;;;;;;;;;5.79;99.74;99772.44;5013059;28;19925;-89
2021/08/09 08:21:31;;;;;;;;;;;;;;;5.87;99.48;99774.91;5022780;28;19930;-92
2021/08/09 08:23:56;;;;;;;;;;;;;;;5.83;98.97;99769.72;5015190;28;19925;-90
2021/08/09 08:26:38;;;;;;;;;;;;;;;5.74;98.93;99767.28;5013046;28;19933;-93
2021/08/09 08:29:04;;;;;;;;;;;;;;;5.64;99.89;99773.66;5026066;28;19929;-90
2021/08/09 08:31:30;;;;;;;;;;;;;;;5.68;99.70;99777.09;5023456;28;19921;-87
2021/08/09 08:33:55;;;;;;;;;;;;;;;5.70;99.31;99773.53;5020110;28;19932;-90
2021/08/09 08:36:21;;;;;;;;;;;;;;;5.63;99.80;99772.81;5005838;28;19932;-88
2021/08/09 08:38:46;;;;;;;;;;;;;;;5.62;100.00;99778.09;5009397;28;21468;-88
2021/08/09 08:41:11;;;;;;;;;;;;;;;5.74;99.82;99763.81;5022932;28;20169;-88
2021/08/09 08:43:44;;;;;;;;;;;;;;;5.64;99.73;99769.28;5027390;28;19979;-88
2021/08/09 08:46:10;;;;;;;;;;;;;;;5.62;100.00;99764.97;5057995;28;20026;-89
2021/08/09 08:48:37;;;;;;;;;;;;;;;5.71;99.29;99769.13;5028164;28;20006;-89
2021/08/09 08:51:03;;;;;;;;;;;;;;;5.74;99.35;99774.31;5020519;28;19939;-89
2021/08/09 08:53:29;;;;;;;;;;;;;;;5.67;100.00;99772.75;5022379;28;19921;-88
2021/08/09 08:55:55;;;;;;;;;;;;;;;5.65;100.00;99770.16;5026409;28;19956;-88
2021/08/09 08:58:20;;;;;;;;;;;;;;;5.74;100.00;99769.91;5025283;28;20292;-88
2021/08/09 09:00:47;;;;;;;;;;;;;;;5.91;99.73;99764.28;5025373;28;20296;-89
2021/08/09 09:03:23;;;;;;;;;;;;;;;5.74;99.66;99766.44;5023272;28;19921;-90
2021/08/09 09:05:58;;;;;;;;;;;;;;;5.71;100.00;99767.38;5023287;28;19990;-89
2021/08/09 09:08:39;;;;;;;;;;;;;;;5.64;100.00;99771.91;5029285;28;19932;-90
2021/08/09 09:11:05;;;;;;;;;;;;;;;5.75;99.91;99770.81;5047517;28;20008;-88
2021/08/09 09:13:31;;;;;;;;;;;;;;;5.79;99.13;99778.59;5029913;28;19975;-88
2021/08/09 09:16:03;;;;;;;;;;;;;;;5.83;99.30;99776.75;5025158;28;19920;-90
2021/08/09 09:18:42;;;;;;;;;;;;;;;5.69;99.94;99781.47;5022262;28;20434;-89
2021/08/09 09:21:11;;;;;;;;;;;;;;;5.68;99.54;99785.88;5038300;28;19984;-89
2021/08/09 09:23:38;;;;;;;;;;;;;;;5.63;100.00;99791.22;5029099;28;20385;-89
2021/08/09 09:26:18;;;;;;;;;;;;;;;5.78;99.98;99779.47;5039386;28;19925;-90
2021/08/09 09:28:43;;;;;;;;;;;;;;;5.70;99.41;99778.78;5036278;28;19920;-90
2021/08/09 09:31:13;;;;;;;;;;;;;;;5.81;100.00;99768.88;5039289;28;19928;-90
2021/08/09 09:33:45;;;;;;;;;;;;;;;5.62;100.00;99764.97;5039442;28;20019;-89
2021/08/09 09:36:10;;;;;;;;;;;;;;;5.68;100.00;99774.47;5039865;28;20280;-90
2021/08/09 09:38:40;;;;;;;;;;;;;;;5.72;100.00;99770.88;5044669;28;19931;-89
2021/08/09 09:41:06;;;;;;;;;;;;;;;5.77;100.00;99769.00;5047231;28;19999;-88
2021/08/09 09:43:39;;;;;;;;;;;;;;;5.70;100.00;99780.56;5026874;28;19971;-88
2021/08/09 09:46:04;;;;;;;;;;;;;;;5.77;100.00;99776.88;5046664;28;20012;-87
2021/08/09 09:48:40;;;;;;;;;;;;;;;5.70;100.00;99777.94;5028813;28;19956;-87
2021/08/09 09:51:15;;;;;;;;;;;;;;;5.66;100.00;99778.91;5022116;28;19963;-89
2021/08/09 09:53:42;;;;;;;;;;;;;;;5.72;100.00;99781.38;5021906;28;19944;-90
2021/08/09 09:56:08;;;;;;;;;;;;;;;5.72;100.00;99790.13;5021980;28;19921;-90
2021/08/09 09:58:37;;;;;;;;;;;;;;;5.59;100.00;99784.28;5021703;28;19921;-90
2021/08/09 10:01:03;;;;;;;;;;;;;;;5.64;100.00;99784.19;5038482;28;19921;-90
2021/08/09 10:03:29;;;;;;;;;;;;;;;5.70;100.00;99793.72;5038662;28;19971;-88
2021/08/09 10:05:55;;;;;;;;;;;;;;;5.67;100.00;99799.03;5021125;28;19976;-89
2021/08/09 10:08:21;;;;;;;;;;;;;;;5.68;100.00;99799.00;5021436;28;20216;-88
2021/08/09 10:10:48;;;;;;;;;;;;;;;5.73;100.00;99797.13;5034765;28;19924;-88
2021/08/09 10:13:16;;;;;;;;;;;;;;;5.66;100.00;99802.56;5024610;28;19932;-89
2021/08/09 10:15:41;;;;;;;;;;;;;;;5.70;100.00;99812.13;5021720;28;19921;-88
2021/08/09 10:18:09;;;;;;;;;;;;;;;5.72;100.00;99807.69;5021789;28;20422;-88
2021/08/09 10:20:35;;;;;;;;;;;;;;;5.63;100.00;99807.00;5021576;28;19929;-90
2021/08/09 10:23:01;;;;;;;;;;;;;;;5.64;100.00;99806.06;5021680;28;20260;-90
2021/08/09 10:25:44;;;;;;;;;;;;;;;5.74;100.00;99811.97;5037157;28;19947;-90
2021/08/09 10:28:10;;;;;;;;;;;;;;;5.69;100.00;99815.63;5037615;28;19948;-88
2021/08/09 10:30:36;;;;;;;;;;;;;;;5.71;100.00;99821.72;5023754;28;19925;-89
2021/08/09 10:33:07;;;;;;;;;;;;;;;5.66;100.00;99819.19;5023439;28;20303;-87
2021/08/09 10:35:40;;;;;;;;;;;;;;;5.73;100.00;99819.94;5023150;28;20304;-89
2021/08/09 10:38:15;;;;;;;;;;;;;;;5.62;100.00;99826.28;5042096;28;19967;-88
2021/08/09 10:40:45;;;;;;;;;;;;;;;5.73;100.00;99819.94;5027380;28;20432;-89
2021/08/09 10:43:12;;;;;;;;;;;;;;;5.80;99.42;99818.88;5038987;28;20416;-88
2021/08/09 10:45:51;;;;;;;;;;;;;;;5.67;99.83;99822.69;5029849;28;19925;-89
2021/08/09 10:48:35;;;;;;;;;;;;;;;5.66;99.50;99818.31;5022859;28;20003;-88
2021/08/09 10:51:01;;;;;;;;;;;;;;;5.80;100.00;99821.50;5023029;28;19925;-88
2021/08/09 10:53:28;;;;;;;;;;;;;;;5.67;99.24;99822.69;5023917;28;19932;-89
2021/08/09 10:55:56;;;;;;;;;;;;;;;5.68;98.61;99816.53;5023285;28;19921;-90
2021/08/09 10:58:41;;;;;;;;;;;;;;;5.71;100.00;99819.97;5020393;28;19980;-90
2021/08/09 11:01:11;;;;;;;;;;;;;;;5.73;99.39;99819.94;5022656;28;19925;-89
2021/08/09 11:03:55;;;;;;;;;;;;;;;5.78;99.37;99815.44;5020804;28;19925;-88
2021/08/09 11:06:37;;;;;;;;;;;;;;;5.72;98.44;99815.56;5022729;28;19968;-89
2021/08/09 11:09:22;;;;;;;;;;;;;;;5.79;99.01;99814.50;5023263;28;19964;-88
2021/08/09 11:12:07;;;;;;;;;;;;;;;5.68;98.41;99819.16;5024814;28;19947;-88
2021/08/09 11:14:53;;;;;;;;;;;;;;;5.83;98.32;99816.19;5055392;28;19967;-89
2021/08/09 11:17:18;;;;;;;;;;;;;;;5.77;98.76;99811.06;5041133;28;19948;-90
2021/08/09 11:19:43;;;;;;;;;;;;;;;5.74;98.51;99814.63;5042302;28;19932;-92
2021/08/09 11:22:09;;;;;;;;;;;;;;;5.84;98.99;99815.28;5042580;28;19920;-89
2021/08/09 11:24:34;;;;;;;;;;;;;;;5.77;97.86;99816.31;5040216;28;19928;-89
2021/08/09 11:27:04;;;;;;;;;;;;;;;5.82;99.60;99814.44;5060915;28;19920;-90
2021/08/09 11:29:49;;;;;;;;;;;;;;;5.76;99.61;99817.22;5042078;28;19929;-89
2021/08/09 11:32:15;;;;;;;;;;;;;;;5.74;99.08;99816.38;5044125;28;19932;-89
2021/08/09 11:34:59;;;;;;;;;;;;;;;5.77;99.89;99811.91;5044748;28;20306;-89
2021/08/09 11:37:24;;;;;;;;;;;;;;;5.84;99.91;99820.56;5047455;28;19999;-90
2021/08/09 11:39:49;;;;;;;;;;;;;;;5.73;99.45;99812.06;5025069;28;19957;-91
2021/08/09 11:42:15;;;;;;;;;;;;;;;5.72;99.14;99812.94;5060889;28;19931;-92
2021/08/09 11:44:42;;;;;;;;;;;;;;;5.81;100.00;99808.34;5061873;28;20353;-89
2021/08/09 11:47:08;;;;;;;;;;;;;;;5.75;98.78;99812.88;5060543;28;19921;-92
2021/08/09 11:49:33;;;;;;;;;;;;;;;5.79;99.76;99801.38;5061492;28;20220;-88
2021/08/09 11:51:59;;;;;;;;;;;;;;;5.75;99.82;99802.34;5043327;28;19977;-88
2021/08/09 11:54:36;;;;;;;;;;;;;;;5.73;99.66;99801.53;5042957;28;19928;-89
2021/08/09 11:57:02;;;;;;;;;;;;;;;5.70;98.86;99794.56;5042649;28;20284;-89
2021/08/09 11:59:27;;;;;;;;;;;;;;;5.81;100.00;99789.06;5042770;28;19920;-89
2021/08/09 12:02:05;;;;;;;;;;;;;;;5.79;99.04;99794.38;5060500;28;19931;-89
2021/08/09 12:04:40;;;;;;;;;;;;;;;5.85;99.43;99782.81;5037047;28;19926;-89
2021/08/09 12:07:16;;;;;;;;;;;;;;;5.80;98.38;99790.81;5052122;28;20007;-89
2021/08/09 12:09:42;;;;;;;;;;;;;;;5.84;98.66;99794.25;5060502;28;19943;-88
2021/08/09 12:12:09;;;;;;;;;;;;;;;5.75;99.09;99786.59;5043075;28;20307;-88
2021/08/09 12:14:35;;;;;;;;;;;;;;;5.67;98.96;99784.13;5059481;28;19960;-88
2021/08/09 12:17:13;;;;;;;;;;;;;;;5.70;99.25;99799.81;5042279;28;19921;-88
2021/08/09 12:19:43;;;;;;;;;;;;;;;6.93;98.19;99798.53;5042462;28;19921;-88
2021/08/09 12:22:10;;;;;;;;;;;;;;;6.15;100.00;99796.19;5056451;28;20374;-88
2021/08/09 12:24:36;;;;;;;;;;;;;;;6.03;100.00;99791.22;5042167;28;19971;-88
2021/08/09 12:27:18;;;;;;;;;;;;;;;5.96;99.80;99796.63;5059202;28;19925;-88
2021/08/09 12:30:02;;;;;;;;;;;;;;;5.88;98.58;99795.91;5059520;28;20020;-88
2021/08/09 12:32:28;;;;;;;;;;;;;;;5.71;98.74;99812.09;5067129;28;19920;-88
2021/08/09 12:34:56;;;;;;;;;;;;;;;5.70;98.65;99804.22;5058584;28;19982;-89
2021/08/09 12:37:22;;;;;;;;;;;;;;;5.68;99.12;99803.38;5038437;28;19920;-88
2021/08/09 12:39:47;;;;;;;;;;;;;;;5.71;98.98;99806.81;5040656;28;20209;-88
2021/08/09 12:42:17;;;;;;;;;;;;;;;5.77;99.51;99796.13;5042661;28;20015;-90
2021/08/09 12:44:43;;;;;;;;;;;;;;;5.73;98.32;99791.88;5058660;28;19990;-89
2021/08/09 12:47:08;;;;;;;;;;;;;;;5.85;98.46;99790.72;5033394;28;20285;-90
2021/08/09 12:49:34;;;;;;;;;;;;;;;5.70;98.06;99796.34;5035896;28;19921;-90
2021/08/09 12:51:59;;;;;;;;;;;;;;;5.67;99.06;99799.03;5059873;28;19920;-88
2021/08/09 12:54:24;;;;;;;;;;;;;;;5.68;99.21;99801.63;5041291;28;20011;-88
2021/08/09 12:56:50;;;;;;;;;;;;;;;5.80;98.36;99800.47;5041378;28;20022;-90
2021/08/09 12:59:15;;;;;;;;;;;;;;;5.73;98.79;99794.50;5042140;28;20013;-89
2021/08/09 13:01:41;;;;;;;;;;;;;;;5.74;98.81;99805.88;5042228;28;19920;-89
2021/08/09 13:04:06;;;;;;;;;;;;;;;5.74;98.89;99808.50;5041196;28;19931;-90
2021/08/09 13:06:34;;;;;;;;;;;;;;;5.69;98.30;99805.13;5041306;28;20019;-90
2021/08/09 13:08:59;;;;;;;;;;;;;;;5.70;99.04;99805.09;5041344;28;19947;-89
2021/08/09 13:11:25;;;;;;;;;;;;;;;5.69;98.71;99807.75;5058874;28;20300;-88
2021/08/09 13:13:51;;;;;;;;;;;;;;;5.62;98.17;99797.38;5058704;28;19921;-88
2021/08/09 13:16:18;;;;;;;;;;;;;;;5.69;98.74;99799.84;5058678;28;19920;-88
2021/08/09 13:18:43;;;;;;;;;;;;;;;5.67;98.38;99802.53;5061298;28;19969;-87
2021/08/09 13:21:08;;;;;;;;;;;;;;;5.66;99.20;99797.31;5039839;28;19932;-89
2021/08/09 13:23:34;;;;;;;;;;;;;;;5.66;99.20;99799.94;5037707;28;19921;-90
2021/08/09 13:26:02;;;;;;;;;;;;;;;5.64;98.52;99794.69;5040567;28;20055;-89
2021/08/09 13:28:30;;;;;;;;;;;;;;;5.68;98.59;99800.75;5053895;28;20329;-90
2021/08/09 13:30:55;;;;;;;;;;;;;;;5.59;98.83;99799.22;5026600;28;19980;-88
2021/08/09 13:33:20;;;;;;;;;;;;;;;5.58;99.01;99800.94;5021419;28;20011;-88
2021/08/09 13:35:47;;;;;;;;;;;;;;;5.63;98.60;99799.09;5033413;28;20055;-88
2021/08/09 13:38:12;;;;;;;;;;;;;;;5.64;98.78;99787.66;5037934;28;19925;-89
2021/08/09 13:40:38;;;;;;;;;;;;;;;5.63;98.49;99778.06;5021359;28;19975;-88
2021/08/09 13:43:04;;;;;;;;;;;;;;;5.64;98.41;99787.66;5021359;28;19921;-88
2021/08/09 13:45:29;;;;;;;;;;;;;;;5.75;98.15;99779.53;5038347;28;19925;-89
2021/08/09 13:47:56;;;;;;;;;;;;;;;5.61;98.01;99781.63;5038472;28;19921;-89
2021/08/09 13:50:22;;;;;;;;;;;;;;;5.61;97.79;99779.84;5038390;28;19917;-90
2021/08/09 13:52:47;;;;;;;;;;;;;;;5.55;98.56;99777.38;5036920;28;19921;-88
2021/08/09 13:55:12;;;;;;;;;;;;;;;5.50;98.06;99773.97;5020854;28;19932;-88
2021/08/09 13:57:38;;;;;;;;;;;;;;;5.52;98.51;99766.06;5020858;28;19926;-89
2021/08/09 14:00:04;;;;;;;;;;;;;;;5.56;97.80;99773.00;5021194;28;19921;-89
2021/08/09 14:02:29;;;;;;;;;;;;;;;5.59;97.58;99772.91;5020685;28;19921;-89
2021/08/09 14:04:54;;;;;;;;;;;;;;;5.54;97.84;99772.16;5037907;28;19926;-89
2021/08/09 14:07:20;;;;;;;;;;;;;;;5.47;97.83;99760.91;5037883;28;19925;-88
2021/08/09 14:09:45;;;;;;;;;;;;;;;5.62;98.33;99765.81;5020946;28;19929;-87
2021/08/09 14:12:11;;;;;;;;;;;;;;;5.56;97.34;99775.63;5021516;28;19925;-88
2021/08/09 14:14:36;;;;;;;;;;;;;;;5.50;97.93;99771.34;5037995;28;19956;-87
2021/08/09 14:17:03;;;;;;;;;;;;;;;5.52;97.67;99766.94;5038617;28;19980;-88
2021/08/09 14:19:28;;;;;;;;;;;;;;;5.55;96.97;99764.25;5039224;28;19921;-89
2021/08/09 14:21:53;;;;;;;;;;;;;;;5.53;96.71;99776.53;5021652;28;19975;-88
2021/08/09 14:24:19;;;;;;;;;;;;;;;5.54;96.54;99764.28;5052022;28;19921;-89
2021/08/09 14:26:44;;;;;;;;;;;;;;;5.58;96.27;99764.16;5040047;28;19921;-89
2021/08/09 14:29:10;;;;;;;;;;;;;;;5.51;97.03;99766.97;5041258;28;19921;-88
2021/08/09 14:31:36;;;;;;;;;;;;;;;5.48;97.33;99778.41;5041250;28;19924;-90
2021/08/09 14:34:01;;;;;;;;;;;;;;;5.60;97.25;99772.88;5041369;28;19921;-89
2021/08/09 14:36:32;;;;;;;;;;;;;;;5.69;97.85;99771.78;5036514;28;19929;-90
2021/08/09 14:39:00;;;;;;;;;;;;;;;5.68;98.90;99774.47;5050160;28;20196;-89
2021/08/09 14:41:25;;;;;;;;;;;;;;;5.69;99.47;99765.69;5041643;28;20228;-88
2021/08/09 14:43:51;;;;;;;;;;;;;;;5.75;99.82;99771.66;5058759;28;19971;-87
2021/08/09 14:46:16;;;;;;;;;;;;;;;5.69;99.91;99768.31;5041114;28;19925;-88
2021/08/09 14:48:41;;;;;;;;;;;;;;;5.61;100.00;99765.84;5058959;28;19920;-88
2021/08/09 14:51:07;;;;;;;;;;;;;;;5.74;99.83;99767.28;5058020;28;19931;-87
2021/08/09 14:53:34;;;;;;;;;;;;;;;5.74;99.30;99769.06;5062199;28;19978;-88
2021/08/09 14:56:00;;;;;;;;;;;;;;;5.67;98.26;99768.34;5040078;28;19940;-89
2021/08/09 14:58:25;;;;;;;;;;;;;;;5.78;98.48;99762.84;5051861;28;19928;-88
2021/08/09 15:00:51;;;;;;;;;;;;;;;5.78;97.99;99766.34;5057413;28;19928;-88
2021/08/09 15:03:17;;;;;;;;;;;;;;;5.71;98.94;99772.66;5055263;28;19966;-88
2021/08/09 15:05:43;;;;;;;;;;;;;;;5.67;98.84;99768.34;5056599;28;20239;-88
2021/08/09 15:08:08;;;;;;;;;;;;;;;5.71;98.79;99766.50;5057884;28;19947;-88
2021/08/09 15:10:34;;;;;;;;;;;;;;;5.76;98.14;99768.13;5040620;28;19952;-88
2021/08/09 15:12:59;;;;;;;;;;;;;;;5.80;97.12;99768.91;5039875;28;19921;-87
2021/08/09 15:15:25;;;;;;;;;;;;;;;5.75;97.17;99766.41;5039156;28;20003;-90
2021/08/09 15:17:51;;;;;;;;;;;;;;;5.74;97.58;99769.06;5054214;28;19928;-87
2021/08/09 15:20:16;;;;;;;;;;;;;;;5.78;98.87;99770.72;5040295;28;19931;-88
2021/08/09 15:22:41;;;;;;;;;;;;;;;5.81;97.93;99765.41;5059782;28;19941;-88
2021/08/09 15:25:07;;;;;;;;;;;;;;;5.91;97.66;99776.56;5043429;28;20266;-88
2021/08/09 15:27:34;;;;;;;;;;;;;;;5.78;96.84;99762.84;5044256;28;19956;-87
2021/08/09 15:29:59;;;;;;;;;;;;;;;5.80;97.73;99775.03;5061070;28;19921;-89
2021/08/09 15:32:25;;;;;;;;;;;;;;;5.76;98.19;99772.50;5039173;28;19985;-88
2021/08/09 15:34:52;;;;;;;;;;;;;;;5.75;98.29;99781.31;5060862;28;20279;-90
2021/08/09 15:37:17;;;;;;;;;;;;;;;5.73;97.76;99783.97;5044776;28;19920;-88
2021/08/09 15:39:43;;;;;;;;;;;;;;;5.68;97.69;99775.34;5076419;28;19921;-88
2021/08/09 15:42:08;;;;;;;;;;;;;;;5.71;97.21;99791.06;5060831;28;19924;-89
2021/08/09 15:44:35;;;;;;;;;;;;;;;5.80;97.90;99775.03;5043823;28;19936;-89
2021/08/09 15:47:02;;;;;;;;;;;;;;;5.73;97.43;99770.84;5056889;28;20002;-88
2021/08/09 15:49:28;;;;;;;;;;;;;;;5.63;96.79;99771.94;5042727;28;19921;-89
2021/08/09 15:51:54;;;;;;;;;;;;;;;5.73;97.41;99773.47;5061579;28;20006;-89
2021/08/09 15:54:21;;;;;;;;;;;;;;;5.67;97.27;99762.22;5060727;28;20222;-89
2021/08/09 15:56:47;;;;;;;;;;;;;;;5.80;97.35;99774.19;5042767;28;20176;-88
2021/08/09 15:59:12;;;;;;;;;;;;;;;5.74;96.59;99763.81;5043327;28;20015;-88
2021/08/09 16:01:38;;;;;;;;;;;;;;;5.76;96.32;99772.50;5061377;28;19951;-90
2021/08/09 16:04:04;;;;;;;;;;;;;;;5.74;96.63;99771.69;5060468;28;19921;-88
2021/08/09 16:06:29;;;;;;;;;;;;;;;5.60;97.20;99772.88;5043329;28;19932;-89
2021/08/09 16:08:57;;;;;;;;;;;;;;;5.68;97.88;99761.31;5059893;28;19917;-88
2021/08/09 16:11:22;;;;;;;;;;;;;;;5.73;97.44;99756.84;5040670;28;19921;-90
2021/08/09 16:13:47;;;;;;;;;;;;;;;5.71;96.89;99750.72;5023139;28;19971;-89
2021/08/09 16:16:15;;;;;;;;;;;;;;;5.63;96.83;99757.03;5023116;28;20514;-90
2021/08/09 16:18:41;;;;;;;;;;;;;;;5.54;96.52;99762.50;5040361;28;19931;-89
2021/08/09 16:21:09;;;;;;;;;;;;;;;5.61;96.41;99758.81;5021438;28;19921;-88
2021/08/09 16:23:40;;;;;;;;;;;;;;;5.74;96.82;99759.41;5041825;28;19976;-88
2021/08/09 16:26:05;;;;;;;;;;;;;;;5.79;95.97;99756.66;5022424;28;19929;-88
2021/08/09 16:28:31;;;;;;;;;;;;;;;5.71;97.03;99755.97;5022640;28;19925;-89
2021/08/09 16:30:58;;;;;;;;;;;;;;;5.68;95.91;99753.44;5022489;28;20284;-89
2021/08/09 16:33:24;;;;;;;;;;;;;;;5.73;96.67;99752.44;5020860;28;19979;-89
2021/08/09 16:35:49;;;;;;;;;;;;;;;5.70;97.10;99759.53;5021307;28;19925;-89
2021/08/09 16:38:15;;;;;;;;;;;;;;;5.71;96.00;99762.13;5050840;28;20302;-90
2021/08/09 16:40:41;;;;;;;;;;;;;;;5.61;96.37;99758.81;5059459;28;19921;-89
2021/08/09 16:43:06;;;;;;;;;;;;;;;5.69;96.06;99755.16;5060310;28;19924;-89
2021/08/09 16:45:32;;;;;;;;;;;;;;;5.64;96.16;99761.38;5066858;28;19925;-89
2021/08/09 16:47:57;;;;;;;;;;;;;;;5.59;96.93;99758.00;5059483;28;20213;-89
2021/08/09 16:50:23;;;;;;;;;;;;;;;5.51;96.11;99759.94;5040701;28;19921;-87
2021/08/09 16:52:48;;;;;;;;;;;;;;;5.62;96.32;99747.41;5058471;28;19921;-88
2021/08/09 16:55:13;;;;;;;;;;;;;;;5.72;96.19;99750.69;5058677;28;20029;-88
2021/08/09 16:57:39;;;;;;;;;;;;;;;5.83;96.29;99753.06;5041363;28;19921;-88
2021/08/09 17:00:05;;;;;;;;;;;;;;;5.62;95.84;99752.69;5041052;28;20270;-89
2021/08/09 17:02:30;;;;;;;;;;;;;;;5.66;96.29;99757.88;5058971;28;19975;-90
2021/08/09 17:04:56;;;;;;;;;;;;;;;5.62;95.87;99752.69;5059012;28;19939;-88
2021/08/09 17:07:21;;;;;;;;;;;;;;;5.73;95.93;99752.44;5059009;28;19925;-88
2021/08/09 17:09:48;;;;;;;;;;;;;;;5.67;95.53;99751.72;5041294;28;20296;-88
2021/08/09 17:12:14;;;;;;;;;;;;;;;5.67;94.95;99744.69;5058829;28;19925;-90
2021/08/09 17:14:45;;;;;;;;;;;;;;;5.73;96.04;99747.19;5030919;28;20347;-90
2021/08/09 17:17:13;;;;;;;;;;;;;;;5.66;95.87;99756.09;5020822;28;19991;-90
2021/08/09 17:19:39;;;;;;;;;;;;;;;5.64;94.75;99752.66;5021615;28;19925;-89
2021/08/09 17:22:05;;;;;;;;;;;;;;;5.62;94.97;99752.69;5049393;28;19993;-89
2021/08/09 17:24:30;;;;;;;;;;;;;;;5.53;95.55;99757.28;5040635;28;19982;-88
2021/08/09 17:26:57;;;;;;;;;;;;;;;5.68;95.38;99753.44;5057155;28;23111;-88
2021/08/09 17:29:29;;;;;;;;;;;;;;;5.73;94.82;99752.44;5040819;28;19960;-88
2021/08/09 17:31:54;;;;;;;;;;;;;;;5.68;95.84;99743.78;5036992;28;20302;-88
2021/08/09 17:34:20;;;;;;;;;;;;;;;5.57;95.87;99748.44;5040201;28;19920;-88
2021/08/09 17:36:45;;;;;;;;;;;;;;;5.66;95.90;99748.19;5040922;28;19939;-88
2021/08/09 17:39:11;;;;;;;;;;;;;;;5.71;94.73;99751.63;5041151;28;20277;-87
2021/08/09 17:41:36;;;;;;;;;;;;;;;5.73;94.36;99746.31;5040762;28;19925;-89
2021/08/09 17:44:01;;;;;;;;;;;;;;;5.68;95.47;99748.16;5040027;28;19952;-88
2021/08/09 17:46:28;;;;;;;;;;;;;;;5.67;94.96;99746.47;5057071;28;19998;-88
2021/08/09 17:48:55;;;;;;;;;;;;;;;5.66;94.90;99747.34;5039894;28;20339;-88
2021/08/09 17:51:21;;;;;;;;;;;;;;;5.63;95.32;99751.78;5040060;28;19921;-87
2021/08/09 17:53:47;;;;;;;;;;;;;;;5.70;95.58;99749.88;5057679;28;20334;-88
2021/08/09 17:56:12;;;;;;;;;;;;;;;5.69;94.70;99749.91;5039406;28;19967;-90
2021/08/09 17:58:38;;;;;;;;;;;;;;;5.56;94.91;99750.19;5039641;28;20007;-90
2021/08/09 18:01:03;;;;;;;;;;;;;;;5.61;94.51;99755.34;5039729;28;19917;-90
2021/08/09 18:03:28;;;;;;;;;;;;;;;5.81;94.32;99752.25;5036811;28;19979;-90
2021/08/09 18:05:54;;;;;;;;;;;;;;;5.79;95.03;99752.28;5037776;28;19996;-89
2021/08/09 18:08:20;;;;;;;;;;;;;;;5.68;95.13;99758.69;5037293;28;20341;-89
2021/08/09 18:10:46;;;;;;;;;;;;;;;5.58;95.40;99755.41;5036872;28;19929;-89
2021/08/09 18:13:12;;;;;;;;;;;;;;;5.76;95.26;99752.38;5021750;28;20023;-89
2021/08/09 18:15:38;;;;;;;;;;;;;;;5.66;94.26;99755.22;5016808;28;20011;-89
2021/08/09 18:18:05;;;;;;;;;;;;;;;5.60;94.59;99753.59;5036850;28;20331;-89
2021/08/09 18:20:30;;;;;;;;;;;;;;;5.62;94.87;99755.31;5017790;28;19921;-90
2021/08/09 18:22:56;;;;;;;;;;;;;;;5.56;95.23;99757.22;5036144;28;20027;-88
2021/08/09 18:25:22;;;;;;;;;;;;;;;5.59;94.73;99758.00;5022230;28;20062;-88
2021/08/09 18:27:49;;;;;;;;;;;;;;;5.59;94.70;99759.78;5019309;28;19932;-88
2021/08/09 18:30:15;;;;;;;;;;;;;;;5.60;95.03;99751.84;5037532;28;20433;-89
2021/08/09 18:32:40;;;;;;;;;;;;;;;5.60;95.62;99749.22;5018823;28;19921;-88
2021/08/09 18:35:06;;;;;;;;;;;;;;;5.72;95.23;99755.09;5013924;28;19955;-90
2021/08/09 18:37:32;;;;;;;;;;;;;;;5.72;95.00;99749.84;5017239;28;19925;-90
2021/08/09 18:39:59;;;;;;;;;;;;;;;5.55;94.52;99763.34;5039626;28;19921;-91
2021/08/09 18:42:24;;;;;;;;;;;;;;;5.54;94.99;99756.41;5039944;28;19921;-90
2021/08/09 18:44:50;;;;;;;;;;;;;;;5.55;95.20;99759.00;5040733;28;20094;-89
2021/08/09 18:47:17;;;;;;;;;;;;;;;5.48;95.29;99762.63;5054643;28;20003;-89
2021/08/09 18:49:42;;;;;;;;;;;;;;;5.59;95.35;99759.78;5058430;28;20317;-90
2021/08/09 18:52:08;;;;;;;;;;;;;;;5.58;95.61;99764.16;5040157;28;19929;-89
2021/08/09 18:54:33;;;;;;;;;;;;;;;5.61;96.17;99764.09;5043484;28;19920;-88
2021/08/09 18:56:59;;;;;;;;;;;;;;;5.59;94.91;99765.88;5061017;28;20292;-90
2021/08/09 18:59:25;;;;;;;;;;;;;;;5.57;95.05;99766.84;5062945;28;19924;-89
2021/08/09 19:01:53;;;;;;;;;;;;;;;5.62;94.89;99776.34;5052105;28;20208;-89
2021/08/09 19:04:21;;;;;;;;;;;;;;;5.51;94.78;99770.47;5045482;28;19920;-89
2021/08/09 19:06:47;;;;;;;;;;;;;;;5.58;95.28;99768.56;5059701;28;19987;-90
2021/08/09 19:09:15;;;;;;;;;;;;;;;5.61;94.98;99771.97;5044783;28;19921;-89
2021/08/09 19:11:40;;;;;;;;;;;;;;;5.71;94.88;99771.75;5043652;28;20219;-89
2021/08/09 19:14:06;;;;;;;;;;;;;;;5.58;95.92;99774.66;5043615;28;19995;-88
2021/08/09 19:16:31;;;;;;;;;;;;;;;5.45;95.72;99770.59;5060553;28;19995;-88